Time;durP1;ratioP1;P1;durP2;ratioP2;P2;SDS_P1;SDS_P2;PMS_P1;PMS_P2;Temp;Humidity;BMP_temperature;BMP_pressure;BME280_temperature;BME280_humidity;BME280_pressure;Samples;Min_cycle;Max_cycle;Signal;HPM_P1;HPM_P2
2022/02/25 00:06:15;;;;;;;25.70;10.27;;;;;;;2.79;86.00;100801.66;31196734;28;20107;-73
2022/02/25 00:21:17;;;;;;;18.87;8.33;;;;;;;2.78;85.32;100786.72;31180114;28;20053;-73
2022/02/25 00:36:20;;;;;;;19.67;9.63;;;;;;;2.71;88.09;100757.03;31192735;28;20088;-72
2022/02/25 00:51:24;;;;;;;19.67;8.93;;;;;;;2.55;91.17;100732.97;31166545;28;20073;-74
2022/02/25 01:06:27;;;;;;;26.60;10.10;;;;;;;2.38;92.96;100718.00;31170925;28;20050;-74
2022/02/25 01:21:32;;;;;;;19.47;8.40;;;;;;;2.38;95.40;100718.00;31218747;28;20049;-73
2022/02/25 01:36:34;;;;;;;23.37;9.53;;;;;;;2.38;95.36;100696.56;31203828;28;20071;-73
2022/02/25 01:51:35;;;;;;;21.40;9.57;;;;;;;2.13;99.15;100684.50;31220239;28;20129;-71
2022/02/25 02:06:38;;;;;;;22.63;9.73;;;;;;;2.10;100.00;100658.44;31206307;28;20068;-71
2022/02/25 02:21:43;;;;;;;23.80;10.50;;;;;;;2.15;100.00;100644.75;31205633;28;20139;-73
2022/02/25 02:36:47;;;;;;;17.23;7.93;;;;;;;2.20;100.00;100657.09;31212009;28;20059;-73
2022/02/25 02:51:50;;;;;;;16.70;8.00;;;;;;;2.14;100.00;100643.19;31175500;28;20081;-72
2022/02/25 03:06:52;;;;;;;13.83;7.37;;;;;;;2.38;100.00;100653.69;31204197;28;20480;-72
2022/02/25 03:21:54;;;;;;;12.07;6.53;;;;;;;2.20;100.00;100631.09;31177284;28;20041;-73
2022/02/25 03:36:55;;;;;;;13.50;6.10;;;;;;;2.21;100.00;100600.50;31192313;28;20071;-72
2022/02/25 03:51:57;;;;;;;13.37;6.37;;;;;;;2.15;100.00;100617.97;31221760;28;20073;-72
2022/02/25 04:06:59;;;;;;;10.27;5.70;;;;;;;2.05;100.00;100618.53;31222218;28;20495;-73
2022/02/25 04:22:01;;;;;;;15.70;7.50;;;;;;;1.94;100.00;100612.13;31208168;28;20061;-73
2022/02/25 04:37:04;;;;;;;10.73;5.67;;;;;;;1.99;100.00;100598.47;31263436;28;20119;-72
2022/02/25 04:52:09;;;;;;;12.10;5.23;;;;;;;1.88;100.00;100587.53;31227161;28;20050;-73
2022/02/25 05:07:12;;;;;;;12.43;6.00;;;;;;;1.76;100.00;100568.88;31258657;28;20065;-74
2022/02/25 05:22:15;;;;;;;9.43;5.13;;;;;;;1.70;100.00;100559.56;31243037;28;20053;-73
2022/02/25 05:37:20;;;;;;;11.80;5.27;;;;;;;1.92;100.00;100587.59;31228702;28;20049;-75
2022/02/25 05:52:23;;;;;;;11.07;5.80;;;;;;;1.79;100.00;100562.06;31200932;28;20049;-73
2022/02/25 06:07:27;;;;;;;11.50;6.00;;;;;;;1.91;100.00;100549.34;31222407;28;20060;-73
2022/02/25 06:22:31;;;;;;;12.47;5.97;;;;;;;1.83;100.00;100536.94;31214122;28;20057;-77
2022/02/25 06:37:36;;;;;;;12.47;5.87;;;;;;;2.07;100.00;100538.59;31275385;28;20057;-79
2022/02/25 06:52:40;;;;;;;9.80;5.93;;;;;;;2.04;100.00;100521.34;31240316;28;20052;-79
2022/02/25 07:07:44;;;;;;;11.33;5.73;;;;;;;2.08;100.00;100489.28;31207187;28;20049;-78
2022/02/25 07:22:48;;;;;;;7.97;4.63;;;;;;;2.17;100.00;100465.72;31209141;28;20553;-77
2022/02/25 07:37:52;;;;;;;10.00;5.53;;;;;;;2.31;100.00;100454.53;31206280;28;20072;-72
2022/02/25 07:52:56;;;;;;;11.03;5.37;;;;;;;2.32;100.00;100446.13;31199047;28;20041;-72
2022/02/25 08:08:05;;;;;;;14.33;7.00;;;;;;;2.32;100.00;100435.41;31195396;28;20049;-71
2022/02/25 08:23:07;;;;;;;18.17;9.13;;;;;;;2.41;100.00;100432.50;31176073;28;20384;-70
2022/02/25 08:38:09;;;;;;;12.33;6.33;;;;;;;2.57;100.00;100424.38;31182877;28;20363;-78
2022/02/25 08:53:11;;;;;;;11.90;6.83;;;;;;;2.71;100.00;100403.19;31169304;28;20054;-77
2022/02/25 09:08:15;;;;;;;15.47;7.30;;;;;;;2.74;100.00;100365.72;31218197;28;20135;-78
2022/02/25 09:23:18;;;;;;;12.30;6.80;;;;;;;2.94;100.00;100336.91;31221722;28;20077;-79
2022/02/25 09:38:21;;;;;;;13.60;6.90;;;;;;;3.07;100.00;100351.63;31206934;28;20060;-76
2022/02/25 09:53:25;;;;;;;13.00;6.80;;;;;;;3.28;100.00;100348.50;31206353;28;20493;-77
2022/02/25 10:08:28;;;;;;;15.00;7.63;;;;;;;3.27;100.00;100343.50;31197860;28;20072;-78
2022/02/25 10:23:34;;;;;;;15.60;7.83;;;;;;;3.34;100.00;100327.47;31176463;28;20056;-80
2022/02/25 10:38:37;;;;;;;17.97;9.43;;;;;;;3.48;100.00;100295.47;31191824;28;20084;-77
2022/02/25 10:53:51;;;;;;;17.33;9.10;;;;;;;3.63;100.00;100273.00;31186869;28;20798;-76
2022/02/25 11:08:53;;;;;;;19.90;9.43;;;;;;;3.63;100.00;100291.81;31194286;28;20137;-75
2022/02/25 11:23:56;;;;;;;19.50;10.20;;;;;;;3.78;100.00;100285.44;31209230;28;20061;-75
2022/02/25 11:38:58;;;;;;;23.70;11.37;;;;;;;3.97;100.00;100273.75;31197551;28;20145;-75
2022/02/25 11:54:18;;;;;;;24.83;10.40;;;;;;;4.02;100.00;100259.19;31215229;28;20049;-75
2022/02/25 12:09:39;;;;;;;22.03;9.63;;;;;;;3.74;100.00;100265.84;31208726;28;20077;-75
2022/02/25 12:24:41;;;;;;;24.33;9.50;;;;;;;3.59;100.00;100268.72;31198717;28;20054;-77
2022/02/25 12:39:42;;;;;;;22.57;9.33;;;;;;;3.68;100.00;100256.56;31202929;28;20049;-75
2022/02/25 12:54:45;;;;;;;27.10;10.53;;;;;;;3.78;100.00;100281.22;31206755;28;20611;-75
2022/02/25 13:09:47;;;;;;;22.97;9.83;;;;;;;3.64;100.00;100266.50;31196340;28;20136;-77
2022/02/25 13:25:07;;;;;;;25.80;10.43;;;;;;;3.54;100.00;100267.16;31198739;28;20057;-76
2022/02/25 13:40:27;;;;;;;23.17;9.60;;;;;;;3.53;100.00;100278.28;31226216;28;20080;-75
2022/02/25 13:55:29;;;;;;;16.70;8.70;;;;;;;3.50;100.00;100271.72;31182227;28;20137;-78
2022/02/25 14:10:35;;;;;;;16.43;8.17;;;;;;;3.20;100.00;100268.28;31218951;28;20140;-76
2022/02/25 14:25:47;;;;;;;14.70;7.20;;;;;;;3.02;100.00;100266.13;31251151;28;20132;-76
2022/02/25 14:40:49;;;;;;;17.60;8.67;;;;;;;2.82;100.00;100253.22;31214437;28;20045;-74
2022/02/25 14:55:52;;;;;;;14.50;7.47;;;;;;;2.75;100.00;100253.88;31172497;28;20120;-76
2022/02/25 15:10:54;;;;;;;16.20;6.40;;;;;;;2.64;100.00;100255.63;31179769;28;20045;-75
2022/02/25 15:25:56;;;;;;;17.83;7.30;;;;;;;2.63;100.00;100278.19;31217437;28;20057;-75
2022/02/25 15:40:58;;;;;;;17.13;7.23;;;;;;;2.44;100.00;100294.38;31249157;28;20061;-76
2022/02/25 15:56:00;;;;;;;12.77;5.93;;;;;;;2.35;100.00;100286.59;31213729;28;20049;-75
2022/02/25 16:11:06;;;;;;;14.50;6.55;;;;;;;2.37;100.00;100282.38;31196835;28;20108;-75
2022/02/25 16:26:09;;;;;;;14.87;6.87;;;;;;;2.43;100.00;100263.34;31189109;28;20060;-76
2022/02/25 16:41:11;;;;;;;12.47;6.37;;;;;;;2.33;100.00;100249.44;31236564;28;20099;-74
2022/02/25 16:56:13;;;;;;;15.50;6.70;;;;;;;2.38;100.00;100262.50;31206343;28;20056;-75
2022/02/25 17:11:15;;;;;;;15.23;7.17;;;;;;;2.45;100.00;100279.84;31211945;28;20057;-78
2022/02/25 17:26:17;;;;;;;15.00;6.30;;;;;;;2.26;100.00;100297.53;31219270;28;20603;-76
2022/02/25 17:41:20;;;;;;;15.20;7.03;;;;;;;2.14;100.00;100304.94;31215460;28;20057;-75
2022/02/25 17:56:21;;;;;;;18.23;7.97;;;;;;;2.22;100.00;100307.41;31194266;28;20085;-71
2022/02/25 18:11:26;;;;;;;20.90;8.40;;;;;;;2.32;100.00;100312.19;31220152;28;20048;-72
2022/02/25 18:26:30;;;;;;;21.40;8.60;;;;;;;2.38;100.00;100321.44;31235004;28;20126;-72
2022/02/25 18:41:34;;;;;;;22.77;8.00;;;;;;;2.63;100.00;100326.44;31227366;28;20068;-71
2022/02/25 18:56:40;;;;;;;28.90;9.57;;;;;;;2.86;100.00;100321.81;31178662;28;20046;-71
2022/02/25 19:11:42;;;;;;;25.03;10.57;;;;;;;2.85;100.00;100309.56;31214748;28;20049;-71
2022/02/25 19:26:47;;;;;;;38.67;11.57;;;;;;;2.83;100.00;100311.06;31216610;28;20460;-71
2022/02/25 19:42:07;;;;;;;29.73;9.20;;;;;;;2.90;100.00;100325.34;31214059;28;20049;-72
2022/02/25 19:57:11;;;;;;;35.30;11.50;;;;;;;2.98;100.00;100331.59;31186940;28;20041;-71
2022/02/25 20:12:13;;;;;;;34.17;11.13;;;;;;;2.94;100.00;100330.75;31210176;28;20053;-72
2022/02/25 20:27:16;;;;;;;41.67;10.07;;;;;;;2.91;100.00;100337.63;31192854;28;20077;-73
2022/02/25 20:42:19;;;;;;;40.47;12.73;;;;;;;3.07;100.00;100327.50;31199956;28;20054;-71
2022/02/25 20:57:22;;;;;;;38.97;10.50;;;;;;;3.19;100.00;100331.13;31180183;28;20052;-71
2022/02/25 21:12:24;;;;;;;31.10;10.30;;;;;;;3.06;100.00;100317.94;31199247;28;20050;-71
2022/02/25 21:27:27;;;;;;;74.70;12.67;;;;;;;3.05;100.00;100313.69;31221956;28;20061;-74
2022/02/25 21:42:29;;;;;;;38.13;9.93;;;;;;;2.96;100.00;100310.50;31206266;28;20045;-75
2022/02/25 21:57:31;;;;;;;36.67;10.17;;;;;;;2.85;100.00;100301.50;31215180;28;20055;-75
2022/02/25 22:12:34;;;;;;;49.90;10.27;;;;;;;2.78;100.00;100295.28;31195082;28;20058;-75
2022/02/25 22:27:42;;;;;;;35.00;10.93;;;;;;;2.86;100.00;100304.97;31213815;28;20053;-75
2022/02/25 22:42:44;;;;;;;;;;;;;;;2.92;100.00;100301.63;31186792;28;20052;-75
2022/02/25 23:13:08;;;;;;;34.43;12.10;;;;;;;2.65;100.00;100319.59;31213338;28;20049;-75
2022/02/25 23:28:09;;;;;;;32.57;10.77;;;;;;;2.55;100.00;100316.75;31211020;28;20057;-76
2022/02/25 23:43:11;;;;;;;27.37;9.83;;;;;;;2.32;100.00;100327.47;31200620;28;20049;-76
2022/02/25 23:58:13;;;;;;;27.47;9.63;;;;;;;2.25;100.00;100336.16;31180104;28;20079;-75
